createdAt,value
2019-05-29T00:00:16.323Z,12.72
2019-05-29T00:02:44.906Z,12.82
2019-05-29T00:05:14.543Z,12.80
2019-05-29T00:07:43.197Z,12.63
2019-05-29T00:10:12.367Z,12.67
2019-05-29T00:12:40.880Z,12.70
2019-05-29T00:15:10.371Z,12.73
2019-05-29T00:17:39.043Z,12.56
2019-05-29T00:20:08.308Z,12.48
2019-05-29T00:22:36.952Z,12.52
2019-05-29T00:25:29.194Z,12.50
2019-05-29T00:27:57.817Z,12.34
2019-05-29T00:30:26.434Z,12.43
2019-05-29T00:32:55.004Z,12.41
2019-05-29T00:35:23.470Z,12.45
2019-05-29T00:37:52.071Z,12.33
2019-05-29T00:40:20.653Z,12.25
2019-05-29T00:42:49.233Z,12.29
2019-05-29T00:45:18.293Z,12.31
2019-05-29T00:47:49.752Z,12.29
2019-05-29T00:50:18.471Z,12.19
2019-05-29T00:52:47.056Z,12.05
2019-05-29T00:55:16.884Z,12.06
2019-05-29T00:57:45.643Z,12.00
2019-05-29T01:00:15.862Z,12.15
2019-05-29T01:02:47.652Z,11.99
2019-05-29T01:05:16.309Z,12.05
2019-05-29T01:07:44.902Z,12.03
2019-05-29T01:10:14.666Z,12.04
2019-05-29T01:12:43.204Z,11.97
2019-05-29T01:15:13.236Z,11.87
2019-05-29T01:17:41.900Z,11.94
2019-05-29T01:20:11.846Z,11.96
2019-05-29T01:22:40.580Z,11.90
2019-05-29T01:25:09.936Z,11.90
2019-05-29T01:27:38.454Z,11.85
2019-05-29T01:30:07.781Z,11.79
2019-05-29T01:32:36.384Z,11.74
2019-05-29T01:35:09.525Z,11.91
2019-05-29T01:37:38.039Z,11.90
2019-05-29T01:40:19.156Z,11.74
2019-05-29T01:42:37.223Z,11.67
2019-05-29T01:45:08.815Z,11.61
2019-05-29T01:47:37.624Z,11.66
2019-05-29T01:50:06.893Z,11.69
2019-05-29T01:52:35.534Z,11.58
2019-05-29T01:55:06.645Z,11.63
2019-05-29T01:57:35.166Z,11.48
2019-05-29T02:00:05.638Z,11.57
2019-05-29T02:02:34.122Z,11.54
2019-05-29T02:05:02.745Z,11.59
2019-05-29T02:07:31.296Z,11.53
2019-05-29T02:09:59.931Z,11.57
2019-05-29T02:12:28.451Z,11.50
2019-05-29T02:14:57.045Z,11.50
2019-05-29T02:17:25.561Z,11.42
2019-05-29T02:19:54.098Z,11.47
2019-05-29T02:22:23.096Z,11.46
2019-05-29T02:24:51.749Z,11.51
2019-05-29T02:27:21.223Z,11.55
2019-05-29T02:29:50.029Z,11.51
2019-05-29T02:32:19.627Z,11.57
2019-05-29T02:34:48.451Z,11.48
2019-05-29T02:37:18.244Z,11.43
2019-05-29T02:39:47.002Z,11.56
2019-05-29T02:42:15.657Z,11.55
2019-05-29T02:44:44.388Z,11.54
2019-05-29T02:47:12.872Z,11.43
2019-05-29T02:49:41.383Z,11.34
2019-05-29T02:52:09.939Z,11.36
2019-05-29T02:54:38.579Z,11.45
2019-05-29T02:57:07.129Z,11.45
2019-05-29T02:59:35.608Z,11.42
2019-05-29T03:02:04.147Z,11.37
2019-05-29T03:04:33.169Z,11.42
2019-05-29T03:07:02.055Z,11.39
2019-05-29T03:09:30.908Z,11.44
2019-05-29T03:12:00.384Z,11.44
2019-05-29T03:14:29.761Z,11.30
2019-05-29T03:16:59.538Z,11.38
2019-05-29T03:19:28.093Z,11.43
2019-05-29T03:21:56.834Z,11.49
2019-05-29T03:24:26.699Z,11.49
2019-05-29T03:26:55.709Z,11.49
2019-05-29T03:29:25.795Z,11.44
2019-05-29T03:31:54.574Z,11.34
2019-05-29T03:34:23.190Z,11.37
2019-05-29T03:36:51.742Z,11.40
2019-05-29T03:39:21.959Z,11.35
2019-05-29T03:41:52.573Z,11.17
2019-05-29T03:44:21.133Z,11.25
2019-05-29T03:46:49.741Z,11.30
2019-05-29T03:49:18.406Z,11.33
2019-05-29T03:51:46.955Z,11.39
2019-05-29T03:54:15.439Z,11.42
2019-05-29T03:56:43.925Z,11.40
2019-05-29T03:59:12.455Z,11.49
2019-05-29T04:01:41.048Z,11.44
2019-05-29T04:04:09.543Z,11.37
2019-05-29T04:06:38.084Z,11.35
2019-05-29T04:09:07.147Z,11.45
2019-05-29T04:11:37.917Z,11.39
2019-05-29T04:14:06.873Z,11.41
2019-05-29T04:16:58.621Z,11.42
2019-05-29T04:19:13.543Z,11.39
2019-05-29T04:21:44.074Z,11.22
2019-05-29T04:24:16.117Z,11.24
2019-05-29T04:26:46.811Z,11.34
2019-05-29T04:29:15.888Z,11.22
2019-05-29T04:31:44.369Z,11.21
2019-05-29T04:34:12.867Z,11.31
2019-05-29T04:36:41.527Z,11.37
2019-05-29T04:39:10.012Z,11.33
2019-05-29T04:41:39.235Z,11.46
2019-05-29T04:44:07.919Z,11.36
2019-05-29T04:46:38.324Z,11.40
2019-05-29T04:49:06.905Z,11.34
2019-05-29T04:51:35.884Z,11.32
2019-05-29T04:54:05.740Z,11.51
2019-05-29T04:56:34.851Z,11.61
2019-05-29T04:59:03.590Z,11.70
2019-05-29T05:01:33.028Z,11.70
2019-05-29T05:04:01.818Z,11.65
2019-05-29T05:06:31.199Z,11.58
2019-05-29T05:08:59.784Z,11.67
2019-05-29T05:11:29.385Z,11.69
2019-05-29T05:14:01.304Z,11.78
2019-05-29T05:16:29.614Z,11.70
2019-05-29T05:18:58.303Z,11.73
2019-05-29T05:21:26.880Z,11.72
2019-05-29T05:23:55.410Z,11.76
2019-05-29T05:26:30.055Z,11.61
2019-05-29T05:28:58.654Z,11.74
2019-05-29T05:31:27.169Z,11.91
2019-05-29T05:33:55.663Z,11.90
2019-05-29T05:36:24.340Z,11.82
2019-05-29T05:38:52.815Z,11.78
2019-05-29T05:41:21.422Z,11.87
2019-05-29T05:43:49.958Z,11.93
2019-05-29T05:46:18.490Z,11.88
2019-05-29T05:48:46.920Z,12.21
2019-05-29T05:51:15.497Z,12.26
2019-05-29T05:53:44.019Z,12.18
2019-05-29T05:56:12.691Z,12.25
2019-05-29T05:58:42.272Z,12.10
2019-05-29T06:01:11.310Z,12.22
2019-05-29T06:03:42.209Z,12.48
2019-05-29T06:06:10.981Z,12.54
2019-05-29T06:08:40.239Z,12.59
2019-05-29T06:11:09.013Z,12.60
2019-05-29T06:13:38.384Z,12.84
2019-05-29T06:16:07.017Z,12.93
2019-05-29T06:18:36.563Z,13.35
2019-05-29T06:21:05.131Z,13.93
2019-05-29T06:23:34.701Z,14.71
2019-05-29T06:26:03.447Z,15.35
2019-05-29T06:28:33.002Z,15.82
2019-05-29T06:31:01.633Z,16.57
2019-05-29T06:33:30.327Z,17.17
2019-05-29T06:35:58.904Z,17.78
2019-05-29T06:38:27.470Z,18.14
2019-05-29T06:40:56.058Z,18.18
2019-05-29T06:43:25.702Z,17.83
2019-05-29T06:45:55.024Z,18.02
2019-05-29T06:48:57.973Z,18.33
2019-05-29T06:50:58.899Z,18.35
2019-05-29T06:53:29.047Z,17.96
2019-05-29T06:55:58.926Z,17.95
2019-05-29T06:58:27.872Z,18.29
2019-05-29T07:00:56.437Z,18.69
2019-05-29T07:03:25.040Z,19.28
2019-05-29T07:05:53.558Z,19.57
2019-05-29T07:08:37.689Z,19.67
2019-05-29T07:10:52.417Z,19.69
2019-05-29T07:13:21.006Z,20.25
2019-05-29T07:15:49.506Z,20.41
2019-05-29T07:18:18.035Z,19.84
2019-05-29T07:20:46.999Z,19.44
2019-05-29T07:23:15.675Z,18.79
2019-05-29T07:25:45.671Z,18.49
2019-05-29T07:28:14.508Z,18.06
2019-05-29T07:30:49.795Z,18.40
2019-05-29T07:33:13.354Z,18.37
2019-05-29T07:35:41.892Z,19.18
2019-05-29T07:38:10.457Z,19.45
2019-05-29T07:40:40.491Z,19.86
2019-05-29T07:43:09.467Z,19.42
2019-05-29T07:45:38.230Z,19.32
2019-05-29T07:48:06.837Z,19.79
2019-05-29T07:50:35.363Z,20.38
2019-05-29T07:53:03.986Z,20.62
2019-05-29T07:55:33.401Z,20.61
2019-05-29T07:58:02.104Z,20.44
2019-05-29T08:00:35.681Z,19.28
2019-05-29T08:03:00.850Z,18.87
2019-05-29T08:05:29.419Z,18.91
2019-05-29T08:07:58.031Z,19.10
2019-05-29T08:10:26.728Z,19.18
2019-05-29T08:12:56.000Z,19.82
2019-05-29T08:15:24.691Z,20.40
2019-05-29T08:17:53.190Z,19.77
2019-05-29T08:20:21.768Z,19.79
2019-05-29T08:22:50.600Z,19.97
2019-05-29T08:25:19.664Z,20.25
2019-05-29T08:27:48.869Z,19.77
2019-05-29T08:30:18.536Z,19.39
2019-05-29T08:32:47.087Z,19.42
2019-05-29T08:35:17.231Z,19.40
2019-05-29T08:37:46.920Z,19.02
2019-05-29T08:40:18.951Z,19.47
2019-05-29T08:42:47.483Z,20.23
2019-05-29T08:45:18.015Z,20.61
2019-05-29T08:47:47.631Z,20.78
2019-05-29T08:50:19.151Z,20.07
2019-05-29T08:52:48.081Z,20.43
2019-05-29T08:55:18.160Z,20.69
2019-05-29T08:57:46.679Z,20.54
2019-05-29T09:00:16.219Z,20.64
2019-05-29T09:02:44.803Z,20.19
2019-05-29T09:05:14.651Z,19.70
2019-05-29T09:07:47.819Z,19.65
2019-05-29T09:10:16.733Z,19.01
2019-05-29T09:12:51.643Z,19.58
2019-05-29T09:15:20.849Z,20.88
2019-05-29T09:17:46.149Z,21.19
2019-05-29T09:20:28.365Z,21.41
2019-05-29T09:22:45.382Z,21.57
2019-05-29T09:25:15.317Z,22.45
2019-05-29T09:27:44.057Z,21.85
2019-05-29T09:30:13.880Z,22.27
2019-05-29T09:32:49.971Z,21.84
2019-05-29T09:35:15.582Z,22.22
2019-05-29T09:37:44.203Z,22.77
2019-05-29T09:40:16.919Z,22.47
2019-05-29T09:42:45.808Z,21.79
2019-05-29T09:45:16.242Z,21.41
2019-05-29T09:47:45.200Z,20.95
2019-05-29T09:50:14.253Z,21.04
2019-05-29T09:52:42.891Z,22.52
2019-05-29T09:55:11.971Z,21.33
2019-05-29T09:57:40.488Z,21.85
2019-05-29T10:00:11.119Z,22.80
2019-05-29T10:02:39.871Z,23.21
2019-05-29T10:05:10.015Z,22.43
2019-05-29T10:07:39.060Z,24.15
2019-05-29T10:10:12.724Z,23.20
2019-05-29T10:12:41.306Z,22.57
2019-05-29T10:15:11.607Z,21.33
2019-05-29T10:17:40.294Z,21.46
2019-05-29T10:20:11.135Z,22.23
2019-05-29T10:22:41.043Z,22.68
2019-05-29T10:25:12.591Z,22.98
2019-05-29T10:27:41.238Z,21.73
2019-05-29T10:30:10.684Z,22.33
2019-05-29T10:32:39.304Z,22.87
2019-05-29T10:35:09.225Z,22.74
2019-05-29T10:37:37.701Z,23.07
2019-05-29T10:40:08.077Z,22.74
2019-05-29T10:42:36.565Z,21.62
2019-05-29T10:45:08.652Z,21.25
2019-05-29T10:47:37.200Z,21.04
2019-05-29T10:50:07.554Z,21.46
2019-05-29T10:52:36.039Z,21.26
2019-05-29T10:55:10.220Z,20.59
2019-05-29T10:57:38.760Z,20.59
2019-05-29T11:00:09.257Z,20.32
2019-05-29T11:02:37.879Z,20.12
2019-05-29T11:05:06.957Z,19.97
2019-05-29T11:07:35.462Z,19.85
2019-05-29T11:10:05.739Z,19.17
2019-05-29T11:12:34.211Z,19.23
2019-05-29T11:15:19.902Z,18.81
2019-05-29T11:17:33.032Z,18.76
2019-05-29T11:20:01.666Z,18.75
2019-05-29T11:22:30.212Z,18.94
2019-05-29T11:25:20.613Z,19.03
2019-05-29T11:27:28.966Z,19.02
2019-05-29T11:29:58.953Z,18.79
2019-05-29T11:32:27.617Z,18.68
2019-05-29T11:34:57.512Z,18.51
2019-05-29T11:37:26.277Z,18.42
2019-05-29T11:39:54.920Z,18.52
2019-05-29T11:42:27.633Z,17.94
2019-05-29T11:44:55.126Z,17.70
2019-05-29T11:47:23.986Z,17.97
2019-05-29T11:49:55.150Z,18.14
2019-05-29T11:52:25.220Z,17.85
2019-05-29T11:54:58.908Z,17.97
2019-05-29T11:57:24.331Z,18.02
2019-05-29T11:59:53.820Z,17.91
2019-05-29T12:02:22.530Z,18.19
2019-05-29T12:04:51.195Z,17.91
2019-05-29T12:07:19.727Z,17.75
2019-05-29T12:09:48.261Z,17.57
2019-05-29T12:12:16.808Z,17.65
2019-05-29T12:14:58.795Z,17.75
2019-05-29T12:17:15.693Z,17.78
2019-05-29T12:19:44.252Z,17.92
2019-05-29T12:22:12.787Z,17.93
2019-05-29T12:24:41.309Z,17.92
2019-05-29T12:27:09.803Z,17.94
2019-05-29T12:29:38.342Z,18.02
2019-05-29T12:32:10.679Z,18.08
2019-05-29T12:34:52.760Z,18.16
2019-05-29T12:37:09.211Z,17.88
2019-05-29T12:39:37.690Z,17.89
2019-05-29T12:42:06.397Z,17.99
2019-05-29T12:44:34.968Z,17.93
2019-05-29T12:47:04.248Z,17.81
2019-05-29T12:49:33.170Z,17.63
2019-05-29T12:52:02.166Z,17.86
2019-05-29T12:54:31.149Z,17.87
2019-05-29T12:57:00.006Z,17.76
2019-05-29T12:59:28.665Z,17.86
2019-05-29T13:01:58.434Z,17.56
2019-05-29T13:04:27.268Z,17.50
2019-05-29T13:06:56.238Z,17.62
2019-05-29T13:09:24.916Z,17.82
2019-05-29T13:11:54.377Z,17.84
2019-05-29T13:14:23.009Z,17.71
2019-05-29T13:16:51.672Z,17.80
2019-05-29T13:19:20.199Z,17.83
2019-05-29T13:21:48.784Z,17.86
2019-05-29T13:24:18.164Z,17.65
2019-05-29T13:26:46.710Z,17.61
2019-05-29T13:29:15.258Z,17.74
2019-05-29T13:31:43.775Z,17.90
2019-05-29T13:34:12.261Z,17.81
2019-05-29T13:36:40.813Z,17.72
2019-05-29T13:39:09.735Z,17.84
2019-05-29T13:41:38.602Z,17.82
2019-05-29T13:44:09.381Z,17.66
2019-05-29T13:46:37.568Z,17.78
2019-05-29T13:49:07.174Z,17.72
2019-05-29T13:51:35.857Z,17.58
2019-05-29T13:54:13.306Z,17.59
2019-05-29T13:56:34.799Z,17.33
2019-05-29T13:59:04.987Z,17.38
2019-05-29T14:01:33.606Z,17.28
2019-05-29T14:04:02.553Z,17.34
2019-05-29T14:06:31.355Z,17.45
2019-05-29T14:09:00.818Z,17.52
2019-05-29T14:11:30.782Z,17.44
2019-05-29T14:13:59.450Z,17.52
2019-05-29T14:16:27.949Z,17.48
2019-05-29T14:18:56.499Z,17.47
2019-05-29T14:21:25.021Z,17.45
2019-05-29T14:23:53.654Z,17.43
2019-05-29T14:26:23.749Z,17.57
2019-05-29T14:28:52.348Z,17.63
2019-05-29T14:31:20.819Z,17.62
2019-05-29T14:33:49.347Z,17.37
2019-05-29T14:36:17.819Z,17.26
2019-05-29T14:38:46.346Z,17.37
2019-05-29T14:41:14.975Z,17.41
2019-05-29T14:43:43.575Z,17.43
2019-05-29T14:46:12.186Z,17.43
2019-05-29T14:48:40.772Z,17.54
2019-05-29T14:51:12.634Z,17.57
2019-05-29T14:53:41.349Z,17.62
2019-05-29T14:56:10.653Z,17.68
2019-05-29T14:58:39.346Z,17.70
2019-05-29T15:01:09.105Z,17.61
2019-05-29T15:03:37.804Z,17.56
2019-05-29T15:06:07.520Z,17.55
2019-05-29T15:08:36.298Z,17.39
2019-05-29T15:11:05.770Z,17.43
2019-05-29T15:13:36.615Z,17.47
2019-05-29T15:16:06.534Z,17.40
2019-05-29T15:18:35.392Z,17.34
2019-05-29T15:21:04.883Z,17.39
2019-05-29T15:23:33.599Z,17.51
2019-05-29T15:26:02.184Z,17.51
2019-05-29T15:28:30.745Z,17.50
2019-05-29T15:30:59.270Z,17.54
2019-05-29T15:33:27.775Z,17.54
2019-05-29T15:35:56.385Z,17.43
2019-05-29T15:38:24.916Z,17.30
2019-05-29T15:40:53.485Z,17.23
2019-05-29T15:43:21.973Z,17.29
2019-05-29T15:45:50.602Z,17.33
2019-05-29T15:48:19.133Z,17.40
2019-05-29T15:50:47.660Z,17.42
2019-05-29T15:53:17.405Z,17.43
2019-05-29T15:55:46.831Z,17.39
2019-05-29T15:58:15.456Z,17.45
2019-05-29T16:00:44.070Z,17.46
2019-05-29T16:03:14.180Z,17.54
2019-05-29T16:05:42.970Z,17.61
2019-05-29T16:08:11.998Z,17.54
2019-05-29T16:10:40.904Z,17.50
2019-05-29T16:13:10.846Z,17.54
2019-05-29T16:15:39.679Z,17.54
2019-05-29T16:18:19.833Z,17.52
2019-05-29T16:20:38.669Z,17.52
2019-05-29T16:23:07.187Z,17.58
2019-05-29T16:25:40.506Z,17.43
2019-05-29T16:28:05.945Z,17.28
2019-05-29T16:30:34.484Z,17.27
2019-05-29T16:33:03.020Z,17.17
2019-05-29T16:35:31.563Z,17.20
2019-05-29T16:38:00.045Z,17.18
2019-05-29T16:40:28.647Z,16.99
2019-05-29T16:42:57.179Z,16.99
2019-05-29T16:45:25.832Z,17.08
2019-05-29T16:47:54.362Z,17.09
2019-05-29T16:50:23.015Z,17.05
2019-05-29T16:52:51.583Z,17.03
2019-05-29T16:55:21.072Z,17.11
2019-05-29T16:57:49.731Z,17.01
2019-05-29T17:00:19.603Z,17.02
2019-05-29T17:02:48.385Z,16.90
2019-05-29T17:05:17.711Z,16.85
2019-05-29T17:07:49.462Z,16.87
2019-05-29T17:10:18.451Z,16.78
2019-05-29T17:12:47.039Z,16.82
2019-05-29T17:15:17.217Z,16.86
2019-05-29T17:17:46.151Z,16.91
2019-05-29T17:20:16.438Z,16.90
2019-05-29T17:22:45.015Z,16.89
2019-05-29T17:25:14.809Z,16.84
2019-05-29T17:27:43.636Z,16.90
2019-05-29T17:30:12.554Z,16.89
2019-05-29T17:32:41.182Z,16.91
2019-05-29T17:35:10.116Z,16.94
2019-05-29T17:37:38.694Z,16.93
2019-05-29T17:40:07.966Z,16.89
2019-05-29T17:42:36.733Z,16.84
2019-05-29T17:45:12.650Z,16.80
2019-05-29T17:47:41.864Z,17.06
2019-05-29T17:50:10.969Z,17.07
2019-05-29T17:52:39.537Z,17.04
2019-05-29T17:55:09.149Z,17.05
2019-05-29T17:57:37.799Z,17.07
2019-05-29T18:00:09.477Z,16.89
2019-05-29T18:02:51.354Z,16.86
2019-05-29T18:05:08.471Z,16.77
2019-05-29T18:07:37.672Z,16.72
2019-05-29T18:10:08.156Z,16.72
2019-05-29T18:12:38.430Z,16.67
2019-05-29T18:15:08.383Z,16.53
2019-05-29T18:17:36.910Z,16.51
2019-05-29T18:20:14.029Z,16.48
2019-05-29T18:22:40.230Z,16.47
2019-05-29T18:25:09.307Z,16.45
2019-05-29T18:27:37.809Z,16.44
2019-05-29T18:30:08.771Z,16.38
2019-05-29T18:32:37.737Z,16.32
2019-05-29T18:35:07.768Z,16.27
2019-05-29T18:37:36.327Z,16.28
2019-05-29T18:40:12.040Z,16.27
2019-05-29T18:42:37.711Z,16.20
2019-05-29T18:45:19.650Z,16.16
2019-05-29T18:47:38.455Z,16.07
2019-05-29T18:50:08.564Z,16.00
2019-05-29T18:52:37.099Z,15.96
2019-05-29T18:55:07.891Z,15.95
2019-05-29T18:57:36.424Z,15.87
2019-05-29T19:00:08.400Z,15.93
2019-05-29T19:02:36.959Z,15.89
2019-05-29T19:05:06.358Z,15.86
2019-05-29T19:07:35.117Z,15.81
2019-05-29T19:10:06.783Z,15.72
2019-05-29T19:12:35.950Z,15.67
2019-05-29T19:15:07.088Z,15.76
2019-05-29T19:17:36.288Z,15.70
2019-05-29T19:20:06.028Z,15.54
2019-05-29T19:22:34.832Z,15.57
2019-05-29T19:25:04.287Z,15.61
2019-05-29T19:27:40.241Z,15.37
2019-05-29T19:30:03.378Z,15.35
2019-05-29T19:32:32.667Z,15.18
2019-05-29T19:35:02.110Z,15.43
2019-05-29T19:37:31.962Z,15.32
2019-05-29T19:40:00.737Z,15.15
2019-05-29T19:42:30.256Z,15.09
2019-05-29T19:44:58.822Z,15.10
2019-05-29T19:47:27.304Z,15.21
2019-05-29T19:49:55.805Z,15.13
2019-05-29T19:52:25.079Z,15.15
2019-05-29T19:54:53.855Z,15.09
2019-05-29T19:57:22.306Z,15.10
2019-05-29T19:59:50.818Z,14.96
2019-05-29T20:02:19.350Z,14.93
2019-05-29T20:04:47.939Z,14.98
2019-05-29T20:07:16.509Z,15.01
2019-05-29T20:09:45.155Z,14.93
2019-05-29T20:12:13.700Z,14.87
2019-05-29T20:14:42.419Z,14.76
2019-05-29T20:17:10.908Z,14.79
2019-05-29T20:19:40.962Z,14.83
2019-05-29T20:22:09.673Z,14.83
2019-05-29T20:24:39.074Z,14.74
2019-05-29T20:27:07.826Z,14.75
2019-05-29T20:29:36.495Z,14.67
2019-05-29T20:32:05.137Z,14.59
2019-05-29T20:34:34.700Z,14.59
2019-05-29T20:37:03.295Z,14.55
2019-05-29T20:39:32.946Z,14.52
2019-05-29T20:42:01.990Z,14.46
2019-05-29T20:44:30.638Z,14.42
2019-05-29T20:47:02.345Z,14.30
2019-05-29T20:49:31.903Z,14.28
2019-05-29T20:52:00.529Z,14.10
2019-05-29T20:54:29.321Z,13.89
2019-05-29T20:57:00.206Z,13.88
2019-05-29T20:59:28.954Z,13.95
2019-05-29T21:01:57.482Z,14.08
2019-05-29T21:04:26.031Z,14.10
2019-05-29T21:06:54.667Z,14.08
2019-05-29T21:09:23.320Z,13.97
2019-05-29T21:11:51.826Z,13.97
2019-05-29T21:14:20.335Z,13.78
2019-05-29T21:16:48.824Z,13.74
2019-05-29T21:19:17.548Z,13.87
2019-05-29T21:21:46.139Z,13.81
2019-05-29T21:24:14.763Z,13.78
2019-05-29T21:26:45.192Z,13.77
2019-05-29T21:29:13.845Z,13.80
2019-05-29T21:31:43.605Z,13.76
2019-05-29T21:34:12.676Z,13.71
2019-05-29T21:36:42.175Z,13.62
2019-05-29T21:39:11.075Z,13.62
2019-05-29T21:41:40.400Z,13.66
2019-05-29T21:44:09.142Z,13.53
2019-05-29T21:46:38.842Z,13.62
2019-05-29T21:49:10.944Z,13.63
2019-05-29T21:51:39.366Z,13.62
2019-05-29T21:54:08.044Z,13.46
2019-05-29T21:56:37.504Z,13.54
2019-05-29T21:59:06.257Z,13.52
2019-05-29T22:01:34.923Z,13.48
2019-05-29T22:04:03.929Z,13.46
2019-05-29T22:06:32.542Z,13.43
2019-05-29T22:09:01.283Z,13.43
2019-05-29T22:11:29.782Z,13.22
2019-05-29T22:13:58.550Z,13.15
2019-05-29T22:16:27.237Z,13.06
2019-05-29T22:18:57.017Z,13.18
2019-05-29T22:21:26.425Z,13.23
2019-05-29T22:23:55.151Z,13.17
2019-05-29T22:26:23.725Z,13.14
2019-05-29T22:28:53.131Z,13.04
2019-05-29T22:31:21.715Z,12.93
2019-05-29T22:33:51.410Z,13.01
2019-05-29T22:36:20.124Z,12.92
2019-05-29T22:38:48.633Z,12.78
2019-05-29T22:41:17.172Z,12.69
2019-05-29T22:43:45.799Z,12.72
2019-05-29T22:46:14.319Z,12.78
2019-05-29T22:48:42.814Z,12.67
2019-05-29T22:51:11.478Z,12.55
2019-05-29T22:53:39.935Z,12.52
2019-05-29T22:56:08.459Z,12.56
2019-05-29T22:58:36.967Z,12.42
2019-05-29T23:01:05.487Z,12.64
2019-05-29T23:03:33.978Z,12.65
2019-05-29T23:06:04.236Z,12.55
2019-05-29T23:08:32.771Z,12.64
2019-05-29T23:11:02.982Z,12.64
2019-05-29T23:13:31.886Z,12.60
2019-05-29T23:16:00.822Z,12.61
2019-05-29T23:18:29.382Z,12.60
2019-05-29T23:20:58.448Z,12.62
2019-05-29T23:23:27.093Z,12.52
2019-05-29T23:25:56.510Z,12.55
2019-05-29T23:28:25.099Z,12.51
2019-05-29T23:30:54.679Z,12.49
2019-05-29T23:33:23.338Z,12.43
2019-05-29T23:35:52.912Z,12.37
2019-05-29T23:38:21.680Z,12.38
2019-05-29T23:40:50.316Z,12.40
2019-05-29T23:43:18.875Z,12.39
2019-05-29T23:45:50.393Z,12.28
2019-05-29T23:48:22.022Z,12.30
2019-05-29T23:50:50.537Z,12.27
2019-05-29T23:53:19.118Z,12.25
2019-05-29T23:55:47.673Z,12.27
2019-05-29T23:58:16.246Z,12.32
